KBPT

Jack Brooks Regional Airport

Airport
ICAO code
KBPT
IATA Code
BPT
Summary
ICAO Region
NAM
ICAO Territory
Location

Nederland, Texas

Serving
Beaumont
Elevation
15 ft
Coordinates
29° 57' 3" N , 94° 1' 14" W
KCC
Metar
KBPT 202153Z 18008KT 9SM CLR 24/13 A3020 RMK AO2 SLP226 T02390128

Jack Brooks Regional Airport, formerly Southeast Texas Regional Airport, is a public use airport located near Port Arthur, 8 nm southeast of the central business district of Beaumont, Texas, USA.

Airport map

Aerial View

SKYbrary Partners:

Safety knowledge contributed by: